sensor_id;sensor_type;location;lat;lon;timestamp;P1;P2;P0
77354;PMS7003;66422;51.202;19.936;2023-09-12T00:04:03;60.00;47.50;31.50
77354;PMS7003;66422;51.202;19.936;2023-09-12T00:19:22;60.00;46.67;31.00
77354;PMS7003;66422;51.202;19.936;2023-09-12T00:34:42;58.00;47.00;30.00
77354;PMS7003;66422;51.202;19.936;2023-09-12T00:50:02;56.50;43.50;29.25
77354;PMS7003;66422;51.202;19.936;2023-09-12T01:05:24;55.50;44.00;30.00
77354;PMS7003;66422;51.202;19.936;2023-09-12T01:36:38;64.00;48.00;32.00
77354;PMS7003;66422;51.202;19.936;2023-09-12T01:51:58;57.00;46.00;31.50
77354;PMS7003;66422;51.202;19.936;2023-09-12T02:07:19;61.00;49.00;32.00
77354;PMS7003;66422;51.202;19.936;2023-09-12T02:22:41;56.50;44.50;29.50
77354;PMS7003;66422;51.202;19.936;2023-09-12T02:38:01;63.50;48.50;30.00
77354;PMS7003;66422;51.202;19.936;2023-09-12T02:53:20;62.00;46.50;30.00
77354;PMS7003;66422;51.202;19.936;2023-09-12T03:08:40;61.00;49.00;33.00
77354;PMS7003;66422;51.202;19.936;2023-09-12T03:24:00;59.00;47.50;31.00
77354;PMS7003;66422;51.202;19.936;2023-09-12T03:39:20;56.67;43.67;31.00
77354;PMS7003;66422;51.202;19.936;2023-09-12T03:54:40;61.00;46.00;31.00
77354;PMS7003;66422;51.202;19.936;2023-09-12T04:10:01;61.00;46.00;31.00
77354;PMS7003;66422;51.202;19.936;2023-09-12T04:25:21;63.00;46.00;31.00
77354;PMS7003;66422;51.202;19.936;2023-09-12T04:40:40;54.00;46.00;31.00
77354;PMS7003;66422;51.202;19.936;2023-09-12T04:56:03;60.00;47.50;33.00
77354;PMS7003;66422;51.202;19.936;2023-09-12T05:11:26;63.00;50.00;34.00
77354;PMS7003;66422;51.202;19.936;2023-09-12T05:26:46;66.00;50.00;33.00
77354;PMS7003;66422;51.202;19.936;2023-09-12T05:42:07;67.50;52.00;33.00
77354;PMS7003;66422;51.202;19.936;2023-09-12T05:57:26;71.00;52.00;34.50
77354;PMS7003;66422;51.202;19.936;2023-09-12T06:12:46;63.00;51.00;34.00
77354;PMS7003;66422;51.202;19.936;2023-09-12T06:28:08;67.00;53.00;35.00
77354;PMS7003;66422;51.202;19.936;2023-09-12T06:43:28;54.25;44.00;28.75
77354;PMS7003;66422;51.202;19.936;2023-09-12T06:58:48;54.00;41.00;28.00
77354;PMS7003;66422;51.202;19.936;2023-09-12T07:14:08;53.67;44.00;29.67
77354;PMS7003;66422;51.202;19.936;2023-09-12T07:29:29;50.00;40.67;28.33
77354;PMS7003;66422;51.202;19.936;2023-09-12T07:44:49;48.00;41.00;27.00
77354;PMS7003;66422;51.202;19.936;2023-09-12T08:00:09;46.00;36.00;23.00
77354;PMS7003;66422;51.202;19.936;2023-09-12T08:15:31;43.00;35.67;25.00
77354;PMS7003;66422;51.202;19.936;2023-09-12T08:30:51;40.75;35.25;24.50
77354;PMS7003;66422;51.202;19.936;2023-09-12T08:46:10;44.50;39.00;26.00
77354;PMS7003;66422;51.202;19.936;2023-09-12T09:01:31;42.00;35.00;24.50
77354;PMS7003;66422;51.202;19.936;2023-09-12T09:16:52;40.50;35.00;24.50
77354;PMS7003;66422;51.202;19.936;2023-09-12T09:32:16;42.00;35.00;23.00
77354;PMS7003;66422;51.202;19.936;2023-09-12T09:47:37;33.50;31.50;23.50
77354;PMS7003;66422;51.202;19.936;2023-09-12T10:02:56;31.67;29.33;22.33
77354;PMS7003;66422;51.202;19.936;2023-09-12T10:18:18;21.00;19.00;13.00
77354;PMS7003;66422;51.202;19.936;2023-09-12T10:33:44;29.00;29.00;22.00
77354;PMS7003;66422;51.202;19.936;2023-09-12T10:49:06;28.00;23.00;18.00
77354;PMS7003;66422;51.202;19.936;2023-09-12T11:19:48;32.00;28.00;21.00
77354;PMS7003;66422;51.202;19.936;2023-09-12T11:35:11;27.00;24.00;17.00
77354;PMS7003;66422;51.202;19.936;2023-09-12T11:50:33;28.00;25.00;19.50
77354;PMS7003;66422;51.202;19.936;2023-09-12T12:05:56;25.67;24.33;18.67
77354;PMS7003;66422;51.202;19.936;2023-09-12T12:21:17;27.00;25.00;18.50
77354;PMS7003;66422;51.202;19.936;2023-09-12T12:36:42;25.00;25.00;19.50
77354;PMS7003;66422;51.202;19.936;2023-09-12T12:52:03;24.00;22.33;18.33
77354;PMS7003;66422;51.202;19.936;2023-09-12T13:07:22;28.50;22.00;17.50
77354;PMS7003;66422;51.202;19.936;2023-09-12T13:22:43;24.00;23.00;14.50
77354;PMS7003;66422;51.202;19.936;2023-09-12T13:38:03;22.00;21.50;15.00
77354;PMS7003;66422;51.202;19.936;2023-09-12T13:53:28;22.33;17.33;13.00
77354;PMS7003;66422;51.202;19.936;2023-09-12T14:08:47;21.67;19.67;14.67
77354;PMS7003;66422;51.202;19.936;2023-09-12T14:24:07;20.00;19.00;15.00
77354;PMS7003;66422;51.202;19.936;2023-09-12T14:39:27;22.33;20.00;16.67
77354;PMS7003;66422;51.202;19.936;2023-09-12T14:54:46;21.50;20.00;14.50
77354;PMS7003;66422;51.202;19.936;2023-09-12T15:10:06;23.00;22.00;16.50
77354;PMS7003;66422;51.202;19.936;2023-09-12T15:25:26;18.00;17.50;14.50
77354;PMS7003;66422;51.202;19.936;2023-09-12T15:40:45;24.00;18.50;15.00
77354;PMS7003;66422;51.202;19.936;2023-09-12T15:56:05;20.67;19.33;15.33
77354;PMS7003;66422;51.202;19.936;2023-09-12T16:11:25;25.33;22.67;15.33
77354;PMS7003;66422;51.202;19.936;2023-09-12T16:26:44;24.25;20.50;16.00
77354;PMS7003;66422;51.202;19.936;2023-09-12T16:42:04;26.50;23.00;18.00
77354;PMS7003;66422;51.202;19.936;2023-09-12T16:57:24;27.00;25.33;19.00
77354;PMS7003;66422;51.202;19.936;2023-09-12T17:12:43;33.00;29.67;21.33
77354;PMS7003;66422;51.202;19.936;2023-09-12T17:28:03;26.00;19.50;16.00
77354;PMS7003;66422;51.202;19.936;2023-09-12T17:43:23;24.75;22.50;17.25
77354;PMS7003;66422;51.202;19.936;2023-09-12T17:58:42;36.50;33.00;21.50
77354;PMS7003;66422;51.202;19.936;2023-09-12T18:14:02;50.00;39.50;26.00
77354;PMS7003;66422;51.202;19.936;2023-09-12T18:29:23;38.00;31.50;21.50
77354;PMS7003;66422;51.202;19.936;2023-09-12T18:44:42;31.00;30.00;21.00
77354;PMS7003;66422;51.202;19.936;2023-09-12T19:00:02;31.00;28.67;22.00
77354;PMS7003;66422;51.202;19.936;2023-09-12T19:15:23;46.50;40.00;26.50
77354;PMS7003;66422;51.202;19.936;2023-09-12T19:30:43;39.00;35.00;25.00
77354;PMS7003;66422;51.202;19.936;2023-09-12T19:46:06;64.50;49.50;31.50
77354;PMS7003;66422;51.202;19.936;2023-09-12T20:01:26;46.00;39.00;27.00
77354;PMS7003;66422;51.202;19.936;2023-09-12T20:16:46;53.00;39.00;26.00
77354;PMS7003;66422;51.202;19.936;2023-09-12T20:32:05;43.00;37.00;27.00
77354;PMS7003;66422;51.202;19.936;2023-09-12T20:47:25;48.50;39.50;27.50
77354;PMS7003;66422;51.202;19.936;2023-09-12T21:02:45;54.00;43.00;28.00
77354;PMS7003;66422;51.202;19.936;2023-09-12T21:18:05;53.00;44.00;30.00
77354;PMS7003;66422;51.202;19.936;2023-09-12T21:33:25;54.00;43.00;28.00
77354;PMS7003;66422;51.202;19.936;2023-09-12T21:48:45;50.00;39.00;28.00
77354;PMS7003;66422;51.202;19.936;2023-09-12T22:04:04;52.00;43.50;29.00
77354;PMS7003;66422;51.202;19.936;2023-09-12T22:19:26;56.33;46.33;29.00
77354;PMS7003;66422;51.202;19.936;2023-09-12T22:34:46;59.00;47.50;32.00
77354;PMS7003;66422;51.202;19.936;2023-09-12T22:50:06;59.50;48.00;32.00
77354;PMS7003;66422;51.202;19.936;2023-09-12T23:05:26;58.00;45.00;29.50
77354;PMS7003;66422;51.202;19.936;2023-09-12T23:20:46;64.67;50.00;33.00
77354;PMS7003;66422;51.202;19.936;2023-09-12T23:36:07;59.00;46.00;33.00
77354;PMS7003;66422;51.202;19.936;2023-09-12T23:51:28;65.00;52.00;35.00
